createdAt,value
2022-07-25T00:01:42.723Z,99.90
2022-07-25T00:04:12.103Z,99.90
2022-07-25T00:06:40.081Z,99.90
2022-07-25T00:09:07.394Z,99.90
2022-07-25T00:11:34.045Z,99.90
2022-07-25T00:14:00.622Z,99.90
2022-07-25T00:16:27.213Z,99.90
2022-07-25T00:18:53.852Z,99.90
2022-07-25T00:21:20.396Z,99.90
2022-07-25T00:23:46.937Z,99.90
2022-07-25T00:26:13.795Z,99.90
2022-07-25T00:28:40.430Z,99.90
2022-07-25T00:31:07.003Z,99.90
2022-07-25T00:33:33.671Z,99.90
2022-07-25T00:36:00.422Z,99.90
2022-07-25T00:38:26.917Z,99.90
2022-07-25T00:40:55.466Z,99.90
2022-07-25T00:43:22.592Z,99.90
2022-07-25T00:45:49.179Z,99.90
2022-07-25T00:48:15.767Z,99.90
2022-07-25T00:50:43.212Z,99.90
2022-07-25T00:53:09.873Z,99.90
2022-07-25T00:55:36.696Z,99.90
2022-07-25T00:58:03.437Z,99.90
2022-07-25T01:00:30.128Z,99.90
2022-07-25T01:02:57.687Z,99.90
2022-07-25T01:05:24.231Z,99.90
2022-07-25T01:07:52.462Z,99.90
2022-07-25T01:10:19.077Z,99.90
2022-07-25T01:12:53.316Z,99.90
2022-07-25T01:15:23.354Z,99.90
2022-07-25T01:17:50.741Z,99.90
2022-07-25T01:20:30.679Z,99.90
2022-07-25T01:22:59.197Z,99.90
2022-07-25T01:25:27.010Z,99.90
2022-07-25T01:27:55.682Z,99.90
2022-07-25T01:30:24.236Z,99.90
2022-07-25T01:32:51.369Z,99.90
2022-07-25T01:35:17.933Z,99.90
2022-07-25T01:37:45.989Z,99.90
2022-07-25T01:40:14.544Z,99.90
2022-07-25T01:42:42.126Z,99.90
2022-07-25T01:45:09.853Z,99.90
2022-07-25T01:47:36.376Z,99.90
2022-07-25T01:50:04.084Z,99.90
2022-07-25T01:52:30.730Z,99.90
2022-07-25T01:54:57.382Z,99.90
2022-07-25T01:57:24.986Z,99.90
2022-07-25T01:59:58.474Z,99.90
2022-07-25T02:02:25.093Z,99.90
2022-07-25T02:04:52.081Z,99.90
2022-07-25T02:07:19.271Z,99.90
2022-07-25T02:09:45.923Z,99.90
2022-07-25T02:12:12.495Z,99.90
2022-07-25T02:14:39.039Z,99.90
2022-07-25T02:17:05.627Z,99.90
2022-07-25T02:19:32.581Z,99.90
2022-07-25T02:21:59.304Z,99.90
2022-07-25T02:24:25.917Z,99.90
2022-07-25T02:26:52.719Z,99.90
2022-07-25T02:29:19.289Z,99.90
2022-07-25T02:31:49.094Z,99.90
2022-07-25T02:34:15.833Z,99.90
2022-07-25T02:36:43.417Z,99.90
2022-07-25T02:39:09.996Z,99.90
2022-07-25T02:41:36.710Z,99.90
2022-07-25T02:44:04.676Z,99.90
2022-07-25T02:46:31.864Z,99.90
2022-07-25T02:48:58.647Z,99.90
2022-07-25T02:51:25.359Z,99.90
2022-07-25T02:53:57.661Z,99.90
2022-07-25T02:56:25.052Z,99.90
2022-07-25T02:58:51.581Z,99.90
2022-07-25T03:01:18.189Z,99.90
2022-07-25T03:03:44.915Z,99.90
2022-07-25T03:06:11.461Z,99.90
2022-07-25T03:08:38.061Z,99.90
2022-07-25T03:11:04.568Z,99.90
2022-07-25T03:13:32.455Z,99.90
2022-07-25T03:15:59.020Z,99.90
2022-07-25T03:18:25.648Z,99.90
2022-07-25T03:20:52.284Z,99.90
2022-07-25T03:23:18.808Z,99.90
2022-07-25T03:25:45.325Z,99.90
2022-07-25T03:28:11.887Z,99.90
2022-07-25T03:30:38.441Z,99.90
2022-07-25T03:33:04.987Z,99.90
2022-07-25T03:35:31.542Z,99.90
2022-07-25T03:37:58.099Z,99.90
2022-07-25T03:40:24.631Z,99.90
2022-07-25T03:42:51.147Z,99.90
2022-07-25T03:45:17.667Z,99.90
2022-07-25T03:47:44.201Z,99.90
2022-07-25T03:50:11.159Z,99.90
2022-07-25T03:52:37.938Z,99.90
2022-07-25T03:55:09.572Z,99.90
2022-07-25T03:57:36.939Z,99.90
2022-07-25T04:00:07.478Z,99.90
2022-07-25T04:02:34.779Z,99.90
2022-07-25T04:05:01.374Z,99.90
2022-07-25T04:07:27.953Z,99.90
2022-07-25T04:09:54.595Z,99.90
2022-07-25T04:12:21.118Z,99.90
2022-07-25T04:14:47.658Z,99.90
2022-07-25T04:17:14.327Z,99.90
2022-07-25T04:19:40.989Z,99.90
2022-07-25T04:22:07.515Z,99.90
2022-07-25T04:24:34.102Z,99.90
2022-07-25T04:27:00.617Z,99.90
2022-07-25T04:29:27.140Z,99.90
2022-07-25T04:31:53.701Z,99.90
2022-07-25T04:34:20.579Z,99.90
2022-07-25T04:36:47.111Z,99.90
2022-07-25T04:39:13.645Z,99.90
2022-07-25T04:41:40.267Z,99.90
2022-07-25T04:44:07.645Z,99.90
2022-07-25T04:46:35.222Z,99.90
2022-07-25T04:49:01.825Z,99.90
2022-07-25T04:51:28.583Z,99.90
2022-07-25T04:53:55.109Z,99.90
2022-07-25T04:56:21.662Z,99.90
2022-07-25T04:58:48.644Z,99.90
2022-07-25T05:01:15.471Z,99.90
2022-07-25T05:03:50.136Z,99.90
2022-07-25T05:06:18.810Z,99.90
2022-07-25T05:08:46.335Z,99.90
2022-07-25T05:11:12.877Z,99.90
2022-07-25T05:13:39.381Z,99.90
2022-07-25T05:16:06.362Z,99.90
2022-07-25T05:18:34.198Z,99.90
2022-07-25T05:21:00.762Z,99.90
2022-07-25T05:23:27.343Z,99.90
2022-07-25T05:25:54.519Z,99.90
2022-07-25T05:28:21.044Z,99.90
2022-07-25T05:30:47.700Z,99.90
2022-07-25T05:33:14.248Z,99.90
2022-07-25T05:35:40.884Z,99.90
2022-07-25T05:38:07.376Z,99.90
2022-07-25T05:40:33.893Z,99.90
2022-07-25T05:43:03.215Z,99.90
2022-07-25T05:45:30.901Z,99.90
2022-07-25T05:47:57.506Z,99.90
2022-07-25T05:50:24.435Z,99.90
2022-07-25T05:52:50.953Z,99.90
2022-07-25T05:55:17.626Z,99.90
2022-07-25T05:57:44.297Z,99.90
2022-07-25T06:00:11.943Z,99.90
2022-07-25T06:02:38.676Z,99.90
2022-07-25T06:05:05.742Z,99.90
2022-07-25T06:07:32.238Z,99.90
2022-07-25T06:09:58.771Z,99.90
2022-07-25T06:12:25.286Z,99.90
2022-07-25T06:14:52.220Z,99.50
2022-07-25T06:17:18.812Z,98.80
2022-07-25T06:19:45.340Z,98.90
2022-07-25T06:22:13.013Z,99.10
2022-07-25T06:24:41.471Z,98.40
2022-07-25T06:27:08.255Z,98.60
2022-07-25T06:29:34.783Z,97.80
2022-07-25T06:32:01.458Z,97.60
2022-07-25T06:34:28.879Z,98.10
2022-07-25T06:36:56.784Z,98.30
2022-07-25T06:39:24.295Z,97.90
2022-07-25T06:41:51.286Z,97.70
2022-07-25T06:44:17.787Z,96.60
2022-07-25T06:46:44.449Z,96.60
2022-07-25T06:49:11.123Z,96.60
2022-07-25T06:51:37.660Z,97.10
2022-07-25T06:54:04.687Z,97.70
2022-07-25T06:56:32.196Z,97.30
2022-07-25T06:58:59.597Z,97.50
2022-07-25T07:01:26.424Z,96.00
2022-07-25T07:03:53.287Z,96.10
2022-07-25T07:06:19.872Z,95.60
2022-07-25T07:08:46.450Z,95.30
2022-07-25T07:11:14.582Z,95.50
2022-07-25T07:13:41.197Z,95.50
2022-07-25T07:16:08.561Z,96.20
2022-07-25T07:18:35.208Z,95.50
2022-07-25T07:21:02.026Z,94.50
2022-07-25T07:23:29.137Z,95.20
2022-07-25T07:25:56.370Z,94.90
2022-07-25T07:28:22.942Z,94.50
2022-07-25T07:31:15.216Z,94.00
2022-07-25T07:33:43.125Z,93.40
2022-07-25T07:36:10.126Z,93.70
2022-07-25T07:38:36.656Z,92.60
2022-07-25T07:41:03.286Z,93.10
2022-07-25T07:43:31.021Z,92.80
2022-07-25T07:45:59.973Z,92.80
2022-07-25T07:48:30.812Z,92.70
2022-07-25T07:50:59.398Z,92.70
2022-07-25T07:55:29.653Z,92.30
2022-07-25T07:57:58.755Z,92.10
2022-07-25T08:00:27.419Z,93.10
2022-07-25T08:02:55.281Z,92.40
2022-07-25T08:05:29.377Z,92.50
2022-07-25T08:07:56.300Z,92.50
2022-07-25T08:10:28.136Z,92.90
2022-07-25T08:12:55.008Z,92.40
2022-07-25T08:15:22.762Z,91.70
2022-07-25T08:17:52.010Z,91.50
2022-07-25T08:20:37.367Z,91.30
2022-07-25T08:23:05.704Z,90.60
2022-07-25T08:25:32.299Z,91.10
2022-07-25T08:27:59.233Z,90.70
2022-07-25T08:30:25.822Z,91.90
2022-07-25T08:33:08.967Z,91.30
2022-07-25T08:35:36.081Z,91.70
2022-07-25T08:38:04.105Z,91.40
2022-07-25T08:40:32.133Z,91.20
2022-07-25T08:42:59.773Z,91.80
2022-07-25T08:45:27.885Z,91.50
2022-07-25T08:47:55.763Z,91.70
2022-07-25T08:50:29.235Z,91.80
2022-07-25T08:53:10.308Z,91.40
2022-07-25T08:55:56.702Z,91.20
2022-07-25T08:58:23.241Z,91.50
2022-07-25T09:00:49.783Z,91.10
2022-07-25T09:03:16.410Z,90.80
2022-07-25T09:05:44.829Z,91.40
2022-07-25T09:08:16.988Z,90.90
2022-07-25T09:10:51.103Z,89.40
2022-07-25T09:13:21.417Z,91.10
2022-07-25T09:15:59.687Z,91.10
2022-07-25T09:18:27.414Z,90.90
2022-07-25T09:21:00.827Z,92.00
2022-07-25T09:23:38.713Z,91.50
2022-07-25T09:26:14.457Z,91.70
2022-07-25T09:28:52.911Z,90.70
2022-07-25T09:31:19.500Z,90.80
2022-07-25T09:33:56.191Z,90.70
2022-07-25T09:36:23.301Z,90.50
2022-07-25T09:38:59.822Z,91.40
2022-07-25T09:44:04.592Z,90.10
2022-07-25T09:46:32.736Z,91.30
2022-07-25T09:49:00.327Z,90.70
2022-07-25T09:51:28.156Z,90.90
2022-07-25T09:53:54.701Z,91.40
2022-07-25T09:56:21.264Z,90.60
2022-07-25T09:58:47.836Z,90.30
2022-07-25T10:01:24.856Z,91.10
2022-07-25T10:05:35.963Z,92.20
2022-07-25T10:08:07.382Z,91.90
2022-07-25T10:10:44.561Z,90.90
2022-07-25T10:13:27.532Z,90.30
2022-07-25T10:15:54.592Z,90.50
2022-07-25T10:18:24.895Z,90.40
2022-07-25T10:21:24.450Z,89.70
2022-07-25T10:24:07.733Z,91.00
2022-07-25T10:26:39.728Z,90.80
2022-07-25T10:29:13.298Z,90.70
2022-07-25T10:31:50.587Z,90.10
2022-07-25T10:34:30.975Z,90.40
2022-07-25T10:37:11.453Z,90.20
2022-07-25T10:39:41.234Z,90.70
2022-07-25T10:42:14.546Z,90.40
2022-07-25T10:45:58.860Z,90.20
2022-07-25T10:48:32.428Z,90.00
2022-07-25T10:51:05.169Z,88.20
2022-07-25T10:53:46.623Z,90.20
2022-07-25T10:56:22.707Z,90.00
2022-07-25T10:58:58.277Z,90.50
2022-07-25T11:01:29.758Z,90.50
2022-07-25T11:04:13.785Z,90.90
2022-07-25T11:06:42.525Z,90.40
2022-07-25T11:09:28.175Z,91.20
2022-07-25T11:11:59.167Z,90.70
2022-07-25T11:14:43.585Z,90.50
2022-07-25T11:17:21.890Z,90.90
2022-07-25T11:20:01.847Z,90.10
2022-07-25T11:22:31.741Z,90.80
2022-07-25T11:24:59.696Z,90.30
2022-07-25T11:27:33.653Z,90.30
2022-07-25T11:30:18.258Z,90.00
2022-07-25T11:32:55.358Z,90.30
2022-07-25T11:35:32.508Z,90.00
2022-07-25T11:38:03.325Z,90.30
2022-07-25T11:40:31.866Z,90.40
2022-07-25T11:42:58.901Z,90.70
2022-07-25T11:45:38.218Z,90.30
2022-07-25T11:48:13.886Z,90.20
2022-07-25T11:50:44.635Z,89.80
2022-07-25T11:53:16.442Z,89.40
2022-07-25T11:55:43.941Z,89.30
2022-07-25T11:58:13.101Z,89.90
2022-07-25T12:00:43.733Z,88.90
2022-07-25T12:03:20.048Z,90.00
2022-07-25T12:05:49.167Z,90.00
2022-07-25T12:08:19.475Z,90.30
2022-07-25T12:10:48.464Z,90.20
2022-07-25T12:13:30.081Z,89.20
2022-07-25T12:15:59.192Z,89.00
2022-07-25T12:18:26.692Z,89.60
2022-07-25T12:20:53.340Z,90.00
2022-07-25T12:23:21.051Z,89.90
2022-07-25T12:25:47.706Z,90.50
2022-07-25T12:28:14.461Z,91.50
2022-07-25T12:30:43.088Z,89.80
2022-07-25T12:33:11.080Z,90.40
2022-07-25T12:35:39.276Z,90.00
2022-07-25T12:38:05.841Z,90.70
2022-07-25T12:40:32.833Z,89.20
2022-07-25T12:42:59.470Z,89.70
2022-07-25T12:45:26.914Z,90.60
2022-07-25T12:47:53.493Z,90.90
2022-07-25T12:50:19.977Z,88.70
2022-07-25T12:52:47.658Z,90.10
2022-07-25T12:55:17.890Z,88.30
2022-07-25T12:57:45.722Z,89.50
2022-07-25T13:00:17.137Z,89.30
2022-07-25T13:02:43.895Z,90.00
2022-07-25T13:05:10.693Z,89.80
2022-07-25T13:07:37.690Z,89.30
2022-07-25T13:10:05.900Z,90.10
2022-07-25T13:12:32.436Z,89.30
2022-07-25T13:14:59.061Z,88.90
2022-07-25T13:17:27.684Z,89.00
2022-07-25T13:19:56.110Z,89.40
2022-07-25T13:22:23.539Z,88.20
2022-07-25T13:24:50.468Z,88.40
2022-07-25T13:27:21.712Z,88.40
2022-07-25T13:29:53.271Z,88.40
2022-07-25T13:32:21.055Z,88.50
2022-07-25T13:34:47.624Z,88.70
2022-07-25T13:37:14.303Z,87.80
2022-07-25T13:39:41.581Z,87.30
2022-07-25T13:42:08.335Z,87.50
2022-07-25T13:44:35.469Z,87.60
2022-07-25T13:47:02.050Z,88.00
2022-07-25T13:49:28.601Z,87.00
2022-07-25T13:51:55.139Z,86.80
2022-07-25T13:54:21.922Z,86.50
2022-07-25T13:56:48.430Z,86.80
2022-07-25T13:59:20.965Z,87.40
2022-07-25T14:01:48.500Z,88.10
2022-07-25T14:04:15.070Z,87.40
2022-07-25T14:06:42.131Z,86.40
2022-07-25T14:09:09.301Z,86.50
2022-07-25T14:11:36.151Z,85.50
2022-07-25T14:14:02.811Z,84.90
2022-07-25T14:16:30.234Z,84.90
2022-07-25T14:18:56.790Z,85.20
2022-07-25T14:21:23.342Z,88.00
2022-07-25T14:23:49.951Z,87.00
2022-07-25T14:26:16.496Z,85.20
2022-07-25T14:28:43.007Z,85.10
2022-07-25T14:31:10.640Z,84.40
2022-07-25T14:33:39.180Z,83.90
2022-07-25T14:36:10.025Z,84.90
2022-07-25T14:38:36.638Z,85.20
2022-07-25T14:41:04.331Z,84.70
2022-07-25T14:43:33.166Z,84.40
2022-07-25T14:45:59.660Z,84.40
2022-07-25T14:48:26.268Z,84.00
2022-07-25T14:50:52.793Z,83.30
2022-07-25T14:53:19.385Z,83.30
2022-07-25T14:55:45.886Z,83.80
2022-07-25T14:58:14.684Z,83.50
2022-07-25T15:00:42.763Z,83.40
2022-07-25T15:03:09.308Z,83.70
2022-07-25T15:05:37.588Z,83.70
2022-07-25T15:08:05.683Z,83.50
2022-07-25T15:10:32.208Z,84.90
2022-07-25T15:13:28.096Z,85.50
2022-07-25T15:15:57.174Z,82.80
2022-07-25T15:18:23.740Z,85.80
2022-07-25T15:20:51.056Z,84.90
2022-07-25T15:23:17.714Z,85.20
2022-07-25T15:26:01.215Z,85.60
2022-07-25T15:28:29.334Z,85.70
2022-07-25T15:30:55.873Z,86.40
2022-07-25T15:33:22.520Z,87.40
2022-07-25T15:35:49.045Z,86.20
2022-07-25T15:38:16.221Z,85.70
2022-07-25T15:40:44.118Z,86.40
2022-07-25T15:43:11.561Z,85.80
2022-07-25T15:45:40.769Z,85.00
2022-07-25T15:48:10.837Z,84.70
2022-07-25T15:50:46.570Z,86.80
2022-07-25T15:53:13.844Z,84.70
2022-07-25T15:55:41.937Z,84.30
2022-07-25T15:58:10.458Z,85.00
2022-07-25T16:00:38.434Z,84.60
2022-07-25T16:03:06.147Z,84.30
2022-07-25T16:05:33.239Z,84.20
2022-07-25T16:08:00.297Z,84.70
2022-07-25T16:10:31.838Z,83.90
2022-07-25T16:12:58.882Z,83.50
2022-07-25T16:15:25.412Z,84.10
2022-07-25T16:17:58.811Z,83.80
2022-07-25T16:20:30.669Z,84.50
2022-07-25T16:22:58.309Z,83.00
2022-07-25T16:25:26.814Z,83.80
2022-07-25T16:27:53.572Z,84.20
2022-07-25T16:30:20.238Z,84.10
2022-07-25T16:32:46.955Z,83.90
2022-07-25T16:35:13.595Z,84.40
2022-07-25T16:37:41.619Z,84.00
2022-07-25T16:40:09.272Z,85.20
2022-07-25T16:42:36.411Z,85.30
2022-07-25T16:45:03.872Z,87.20
2022-07-25T16:47:30.386Z,87.40
2022-07-25T16:49:56.932Z,85.40
2022-07-25T16:52:23.448Z,86.80
2022-07-25T16:54:49.992Z,88.60
2022-07-25T16:57:16.523Z,91.00
2022-07-25T16:59:43.144Z,88.20
2022-07-25T17:02:09.777Z,88.50
2022-07-25T17:04:36.774Z,87.00
2022-07-25T17:07:03.316Z,87.20
2022-07-25T17:09:29.833Z,88.90
2022-07-25T17:11:56.345Z,91.10
2022-07-25T17:14:26.426Z,91.30
2022-07-25T17:16:56.410Z,91.50
2022-07-25T17:19:22.905Z,92.10
2022-07-25T17:21:49.543Z,91.90
2022-07-25T17:24:16.037Z,92.70
2022-07-25T17:26:42.606Z,92.10
2022-07-25T17:29:10.092Z,92.50
2022-07-25T17:31:37.122Z,92.70
2022-07-25T17:34:04.108Z,94.70
2022-07-25T17:36:30.662Z,95.80
2022-07-25T17:38:57.223Z,95.00
2022-07-25T17:41:23.739Z,95.40
2022-07-25T17:43:50.265Z,95.10
2022-07-25T17:46:16.807Z,94.90
2022-07-25T17:48:43.597Z,96.70
2022-07-25T17:51:10.167Z,97.00
2022-07-25T17:53:36.714Z,97.10
2022-07-25T17:56:03.845Z,97.20
2022-07-25T17:58:31.535Z,97.00
2022-07-25T18:01:01.135Z,95.40
2022-07-25T18:03:28.075Z,95.20
2022-07-25T18:05:55.404Z,96.00
2022-07-25T18:08:22.136Z,96.10
2022-07-25T18:10:49.171Z,96.30
2022-07-25T18:13:17.829Z,97.20
2022-07-25T18:15:45.348Z,98.40
2022-07-25T18:18:16.995Z,99.30
2022-07-25T18:20:46.499Z,99.60
2022-07-25T18:23:13.014Z,99.90
2022-07-25T18:25:39.554Z,99.90
2022-07-25T18:28:06.303Z,98.30
2022-07-25T18:30:32.974Z,98.30
2022-07-25T18:32:59.488Z,97.90
2022-07-25T18:35:26.012Z,98.30
2022-07-25T18:37:52.616Z,98.70
2022-07-25T18:40:20.004Z,98.80
2022-07-25T18:42:47.090Z,98.70
2022-07-25T18:45:13.818Z,98.40
2022-07-25T18:47:40.974Z,98.70
2022-07-25T18:50:08.499Z,98.90
2022-07-25T18:52:35.446Z,99.10
2022-07-25T18:55:04.418Z,99.50
2022-07-25T18:57:31.224Z,99.60
2022-07-25T19:00:02.458Z,99.50
2022-07-25T19:02:29.804Z,99.30
2022-07-25T19:04:56.344Z,99.80
2022-07-25T19:07:23.029Z,99.90
2022-07-25T19:09:49.643Z,99.90
2022-07-25T19:12:16.163Z,99.70
2022-07-25T19:14:42.670Z,99.80
2022-07-25T19:17:09.167Z,99.90
2022-07-25T19:19:35.737Z,99.80
2022-07-25T19:22:02.264Z,99.90
2022-07-25T19:24:29.263Z,99.90
2022-07-25T19:26:56.474Z,99.90
2022-07-25T19:29:23.026Z,99.90
2022-07-25T19:31:49.598Z,99.90
2022-07-25T19:34:16.092Z,99.90
2022-07-25T19:36:45.076Z,99.90
2022-07-25T19:39:12.195Z,99.90
2022-07-25T19:41:42.082Z,99.90
2022-07-25T19:44:11.259Z,99.90
2022-07-25T19:46:37.788Z,99.90
2022-07-25T19:49:05.970Z,99.90
2022-07-25T19:51:33.073Z,99.90
2022-07-25T19:54:03.661Z,99.90
2022-07-25T19:56:32.619Z,99.90
2022-07-25T19:58:59.753Z,99.90
2022-07-25T20:01:33.478Z,99.90
2022-07-25T20:04:00.364Z,99.90
2022-07-25T20:06:27.142Z,99.90
2022-07-25T20:08:53.700Z,99.90
2022-07-25T20:11:20.240Z,99.90
2022-07-25T20:13:46.757Z,99.90
2022-07-25T20:16:13.349Z,99.90
2022-07-25T20:18:39.912Z,99.90
2022-07-25T20:21:07.181Z,99.90
2022-07-25T20:23:33.752Z,99.90
2022-07-25T20:26:01.515Z,99.90
2022-07-25T20:28:28.315Z,99.90
2022-07-25T20:30:55.501Z,99.90
2022-07-25T20:33:26.204Z,99.90
2022-07-25T20:35:56.995Z,99.90
2022-07-25T20:38:31.637Z,99.90
2022-07-25T20:40:59.495Z,99.90
2022-07-25T20:43:27.755Z,99.90
2022-07-25T20:45:54.676Z,99.90
2022-07-25T20:48:21.302Z,99.90
2022-07-25T20:50:47.891Z,99.90
2022-07-25T20:53:14.409Z,99.90
2022-07-25T20:55:40.897Z,99.90
2022-07-25T20:58:07.416Z,99.90
2022-07-25T21:00:34.155Z,99.90
2022-07-25T21:03:02.116Z,99.90
2022-07-25T21:05:28.760Z,99.90
2022-07-25T21:07:55.765Z,99.90
2022-07-25T21:10:22.861Z,99.90
2022-07-25T21:12:49.409Z,99.90
2022-07-25T21:15:16.266Z,99.90
2022-07-25T21:17:43.468Z,99.90
2022-07-25T21:20:13.058Z,99.90
2022-07-25T21:22:39.729Z,99.90
2022-07-25T21:25:06.823Z,99.90
2022-07-25T21:27:33.767Z,99.90
2022-07-25T21:30:00.364Z,99.90
2022-07-25T21:32:26.955Z,99.90
2022-07-25T21:34:53.468Z,99.90
2022-07-25T21:37:19.980Z,99.90
2022-07-25T21:39:46.496Z,99.90
2022-07-25T21:42:13.084Z,99.90
2022-07-25T21:44:41.378Z,99.90
2022-07-25T21:47:09.102Z,99.90
2022-07-25T21:49:54.438Z,99.90
2022-07-25T21:52:30.249Z,99.90
2022-07-25T21:55:03.344Z,99.90
2022-07-25T21:57:30.819Z,99.90
2022-07-25T21:59:57.313Z,99.90
2022-07-25T22:02:23.985Z,99.90
2022-07-25T22:04:50.815Z,99.90
2022-07-25T22:07:17.824Z,99.90
2022-07-25T22:09:44.772Z,99.90
2022-07-25T22:12:11.301Z,99.90
2022-07-25T22:14:37.795Z,99.90
2022-07-25T22:17:05.051Z,99.90
2022-07-25T22:19:32.243Z,99.90
2022-07-25T22:21:58.794Z,99.90
2022-07-25T22:24:25.302Z,99.90
2022-07-25T22:26:51.815Z,99.90
2022-07-25T22:29:18.337Z,99.90
2022-07-25T22:31:45.043Z,99.90
2022-07-25T22:34:11.586Z,99.90
2022-07-25T22:36:38.117Z,99.90
2022-07-25T22:39:05.089Z,99.90
2022-07-25T22:41:31.889Z,99.90
2022-07-25T22:43:59.850Z,99.90
2022-07-25T22:46:28.730Z,99.90
2022-07-25T22:48:56.303Z,99.90
2022-07-25T22:51:23.310Z,99.90
2022-07-25T22:53:50.027Z,99.90
2022-07-25T22:56:16.867Z,99.90
2022-07-25T22:58:43.624Z,99.90
2022-07-25T23:01:12.356Z,99.90
2022-07-25T23:03:38.980Z,99.90
2022-07-25T23:06:06.064Z,99.90
2022-07-25T23:08:32.634Z,99.90
2022-07-25T23:10:59.310Z,99.90
2022-07-25T23:13:25.822Z,99.90
2022-07-25T23:15:52.387Z,99.90
2022-07-25T23:18:19.338Z,99.90
2022-07-25T23:20:46.349Z,99.90
2022-07-25T23:23:13.165Z,99.90
2022-07-25T23:25:39.726Z,99.90
2022-07-25T23:28:06.324Z,98.00
2022-07-25T23:30:38.079Z,97.00
2022-07-25T23:33:07.156Z,96.30
2022-07-25T23:35:34.006Z,95.30
2022-07-25T23:38:00.538Z,95.00
2022-07-25T23:40:27.210Z,95.10
2022-07-25T23:42:53.717Z,95.30
2022-07-25T23:45:20.310Z,95.00
2022-07-25T23:47:46.905Z,95.40
2022-07-25T23:50:15.472Z,96.60
2022-07-25T23:52:42.063Z,97.30
2022-07-25T23:55:09.363Z,97.90
2022-07-25T23:57:35.965Z,98.40
